Time,TemperatureF,DewpointF,PressureIn,WindDirection,WindDirectionDegrees,WindSpeedMPH,WindSpeedGustMPH,Humidity,HourlyPrecipIn,Conditions,Clouds,dailyrainin,SolarRadiationWatts/m^2,SoftwareType,DateUTC
2013-02-05 00:02:00,15.2,12.0,29.75,South,190,6.0,13.0,87,0.00,,---,0.00,0.00,VWS V14.01,2013-02-05 06:02:00,
2013-02-05 00:07:00,15.3,12.1,29.75,SSW,194,13.0,13.0,87,0.00,,---,0.00,0.00,VWS V14.01,2013-02-05 06:07:00,
2013-02-05 00:12:00,15.5,12.3,29.75,South,183,7.0,15.0,87,0.00,,---,0.00,0.00,VWS V14.01,2013-02-05 06:12:00,
2013-02-05 00:17:00,15.8,12.6,29.75,South,184,4.0,13.0,87,0.00,,---,0.00,0.00,VWS V14.01,2013-02-05 06:17:00,
2013-02-05 00:22:00,16.0,12.8,29.75,South,174,7.0,13.0,87,0.00,,---,0.00,0.00,VWS V14.01,2013-02-05 06:22:00,
2013-02-05 00:27:00,16.3,13.1,29.75,SSW,195,8.0,10.0,87,0.00,,---,0.00,0.00,VWS V14.01,2013-02-05 06:27:00,
2013-02-05 00:32:00,16.4,13.2,29.73,SSW,203,4.0,14.0,87,0.00,,---,0.00,0.00,VWS V14.01,2013-02-05 06:32:00,
2013-02-05 00:37:00,16.7,13.5,29.73,South,178,10.0,14.0,87,0.00,,---,0.00,0.00,VWS V14.01,2013-02-05 06:37:00,
2013-02-05 00:42:00,16.8,13.6,29.73,South,189,6.0,13.0,87,0.00,,---,0.00,0.00,VWS V14.01,2013-02-05 06:42:00,
2013-02-05 00:47:00,16.8,13.6,29.72,SSW,199,10.0,11.0,87,0.00,,---,0.00,0.00,VWS V14.01,2013-02-05 06:47:00,
2013-02-05 00:52:00,16.8,13.6,29.72,SSW,196,8.0,12.0,87,0.00,,---,0.00,0.00,VWS V14.01,2013-02-05 06:52:00,
2013-02-05 00:57:00,16.9,13.7,29.72,SSW,205,12.0,12.0,87,0.00,,---,0.00,0.00,VWS V14.01,2013-02-05 06:57:00,
2013-02-05 01:02:00,17.1,13.9,29.73,SSW,196,13.0,15.0,87,0.00,,---,0.00,0.00,VWS V14.01,2013-02-05 07:02:00,
2013-02-05 01:07:00,17.2,14.0,29.73,SSW,192,6.0,12.0,87,0.00,,---,0.00,0.00,VWS V14.01,2013-02-05 07:07:00,
2013-02-05 01:12:00,17.4,14.2,29.73,SSW,198,7.0,8.0,87,0.00,,---,0.00,0.00,VWS V14.01,2013-02-05 07:12:00,
2013-02-05 01:17:00,17.5,14.3,29.71,SSW,198,7.0,11.0,87,0.00,,---,0.00,0.00,VWS V14.01,2013-02-05 07:17:00,
2013-02-05 01:22:00,17.7,14.5,29.71,SSW,200,7.0,11.0,87,0.00,,---,0.00,0.00,VWS V14.01,2013-02-05 07:22:00,
2013-02-05 01:27:00,18.1,14.9,29.71,SSW,207,10.0,13.0,87,0.00,,---,0.00,0.00,VWS V14.01,2013-02-05 07:27:00,
2013-02-05 01:32:00,18.4,15.2,29.71,SSW,202,10.0,12.0,87,0.00,,---,0.00,0.00,VWS V14.01,2013-02-05 07:32:00,
2013-02-05 01:38:00,18.8,15.6,29.71,SSW,199,12.0,14.0,87,0.00,,---,0.00,0.00,VWS V14.01,2013-02-05 07:38:00,
2013-02-05 01:43:00,19.1,15.9,29.71,SSW,198,5.0,12.0,87,0.00,,---,0.00,0.00,VWS V14.01,2013-02-05 07:43:00,
2013-02-05 01:48:00,19.5,16.3,29.70,SSW,200,11.0,13.0,87,0.00,,---,0.00,0.00,VWS V14.01,2013-02-05 07:48:00,
2013-02-05 01:53:00,19.9,16.7,29.70,South,182,11.0,14.0,87,0.00,,---,0.00,0.00,VWS V14.01,2013-02-05 07:53:00,
2013-02-05 01:58:00,20.3,17.1,29.70,SSW,198,9.0,18.0,87,0.00,,---,0.00,0.00,VWS V14.01,2013-02-05 07:58:00,
2013-02-05 02:03:00,20.4,16.9,29.69,SSW,206,13.0,17.0,86,0.00,,---,0.00,0.00,VWS V14.01,2013-02-05 08:03:00,
2013-02-05 02:08:00,20.4,16.9,29.69,SW,221,6.0,17.0,86,0.00,,---,0.00,0.00,VWS V14.01,2013-02-05 08:08:00,
2013-02-05 02:13:00,20.3,16.8,29.69,SSW,199,8.0,9.0,86,0.00,,---,0.00,0.00,VWS V14.01,2013-02-05 08:13:00,
2013-02-05 02:18:00,20.3,16.8,29.69,SSW,209,7.0,13.0,86,0.00,,---,0.00,0.00,VWS V14.01,2013-02-05 08:18:00,
2013-02-05 02:23:00,20.2,16.7,29.69,SSW,198,11.0,11.0,86,0.00,,---,0.00,0.00,VWS V14.01,2013-02-05 08:23:00,
2013-02-05 02:28:00,20.3,16.8,29.69,SSW,207,5.0,11.0,86,0.00,,---,0.00,0.00,VWS V14.01,2013-02-05 08:28:00,
2013-02-05 02:33:00,20.3,16.8,29.69,SSW,204,9.0,9.0,86,0.00,,---,0.00,0.00,VWS V14.01,2013-02-05 08:33:00,
2013-02-05 02:38:00,20.2,16.7,29.69,SSW,209,5.0,6.0,86,0.00,,---,0.00,0.00,VWS V14.01,2013-02-05 08:38:00,
2013-02-05 02:43:00,20.4,17.2,29.69,SSW,195,11.0,11.0,87,0.00,,---,0.00,0.00,VWS V14.01,2013-02-05 08:43:00,
2013-02-05 02:49:00,20.6,17.4,29.69,SW,215,5.0,12.0,87,0.00,,---,0.00,0.00,VWS V14.01,2013-02-05 08:49:00,
2013-02-05 02:54:00,20.7,17.5,29.69,SSW,204,8.0,12.0,87,0.00,,---,0.00,0.00,VWS V14.01,2013-02-05 08:54:00,
2013-02-05 02:59:00,20.8,17.5,29.69,SSW,211,7.0,10.0,87,0.00,,---,0.00,0.00,VWS V14.01,2013-02-05 08:59:00,
2013-02-05 03:04:00,20.9,17.6,29.68,South,190,12.0,12.0,87,0.00,,---,0.00,0.00,VWS V14.01,2013-02-05 09:04:00,
2013-02-05 03:09:00,21.0,17.8,29.68,SSW,200,14.0,14.0,87,0.00,,---,0.00,0.00,VWS V14.01,2013-02-05 09:09:00,
2013-02-05 03:14:00,21.0,17.5,29.68,SW,223,7.0,11.0,86,0.00,,---,0.00,0.00,VWS V14.01,2013-02-05 09:14:00,
2013-02-05 03:19:00,20.9,17.6,29.67,SSW,210,10.0,11.0,87,0.00,,---,0.00,0.00,VWS V14.01,2013-02-05 09:19:00,
2013-02-05 03:24:00,21.1,17.8,29.67,SSW,209,8.0,12.0,87,0.00,,---,0.00,0.00,VWS V14.01,2013-02-05 09:24:00,
2013-02-05 03:29:00,21.1,17.8,29.67,SSW,202,9.0,11.0,87,0.00,,---,0.00,0.00,VWS V14.01,2013-02-05 09:29:00,
2013-02-05 03:34:00,21.1,17.8,29.67,SSW,197,9.0,13.0,87,0.00,,---,0.00,0.00,VWS V14.01,2013-02-05 09:34:00,
2013-02-05 03:39:00,21.1,17.8,29.67,SSW,209,7.0,11.0,87,0.00,,---,0.00,0.00,VWS V14.01,2013-02-05 09:39:00,
2013-02-05 03:44:00,21.2,17.9,29.67,SSW,200,10.0,12.0,87,0.00,,---,0.00,0.00,VWS V14.01,2013-02-05 09:44:00,
2013-02-05 03:49:00,21.2,17.9,29.67,SSW,207,7.0,11.0,87,0.00,,---,0.00,0.00,VWS V14.01,2013-02-05 09:49:00,
2013-02-05 03:54:00,21.3,18.0,29.67,SSW,203,5.0,7.0,87,0.00,,---,0.00,0.00,VWS V14.01,2013-02-05 09:54:00,
2013-02-05 03:59:00,21.4,18.1,29.67,SSW,211,7.0,11.0,87,0.00,,---,0.00,0.00,VWS V14.01,2013-02-05 09:59:00,
2013-02-05 04:05:00,21.6,18.3,29.66,SW,214,8.0,16.0,87,0.00,,---,0.00,0.00,VWS V14.01,2013-02-05 10:05:00,
2013-02-05 04:10:00,21.6,18.3,29.66,SSW,197,5.0,12.0,87,0.00,,---,0.00,0.00,VWS V14.01,2013-02-05 10:10:00,
2013-02-05 04:15:00,21.8,18.5,29.66,SSW,207,9.0,9.0,87,0.00,,---,0.00,0.00,VWS V14.01,2013-02-05 10:15:00,
2013-02-05 04:20:00,22.0,18.7,29.66,South,191,10.0,11.0,87,0.00,,---,0.00,0.00,VWS V14.01,2013-02-05 10:20:00,
2013-02-05 04:25:00,22.2,18.9,29.66,SW,225,7.0,12.0,87,0.00,,---,0.00,0.00,VWS V14.01,2013-02-05 10:25:00,
2013-02-05 04:30:00,22.4,19.1,29.66,SSW,204,9.0,12.0,87,0.00,,---,0.00,0.00,VWS V14.01,2013-02-05 10:30:00,
2013-02-05 04:35:00,22.6,19.3,29.66,SW,221,6.0,10.0,87,0.00,,---,0.00,0.00,VWS V14.01,2013-02-05 10:35:00,
2013-02-05 04:40:00,22.9,19.6,29.66,SW,220,6.0,10.0,87,0.00,,---,0.00,0.00,VWS V14.01,2013-02-05 10:40:00,
2013-02-05 04:45:00,23.0,20.0,29.66,SW,223,6.0,7.0,88,0.00,,---,0.00,0.00,VWS V14.01,2013-02-05 10:45:00,
2013-02-05 04:50:00,23.0,20.2,29.66,SSW,213,7.0,7.0,89,0.00,,---,0.00,0.00,VWS V14.01,2013-02-05 10:50:00,
2013-02-05 04:55:00,23.1,20.4,29.66,SSW,208,7.0,13.0,89,0.00,,---,0.00,0.00,VWS V14.01,2013-02-05 10:55:00,
2013-02-05 05:00:00,23.3,20.8,29.65,SSW,211,3.0,7.0,90,0.00,,---,0.00,0.00,VWS V14.01,2013-02-05 11:00:00,
2013-02-05 05:05:00,23.4,21.2,29.65,SSW,204,5.0,8.0,91,0.00,,---,0.00,0.00,VWS V14.01,2013-02-05 11:05:00,
2013-02-05 05:10:00,23.5,21.3,29.65,SSW,210,3.0,5.0,91,0.00,,---,0.00,0.00,VWS V14.01,2013-02-05 11:10:00,
2013-02-05 05:15:00,23.5,21.3,29.65,SSW,210,4.0,5.0,91,0.00,,---,0.00,0.00,VWS V14.01,2013-02-05 11:15:00,
2013-02-05 05:21:00,23.7,21.5,29.65,SSW,207,5.0,8.0,91,0.00,,---,0.00,0.00,VWS V14.01,2013-02-05 11:21:00,
2013-02-05 05:26:00,23.8,21.6,29.65,SW,224,5.0,9.0,91,0.00,,---,0.00,0.00,VWS V14.01,2013-02-05 11:26:00,
2013-02-05 05:31:00,23.8,21.6,29.65,WSW,252,3.0,10.0,91,0.00,,---,0.00,0.00,VWS V14.01,2013-02-05 11:31:00,
2013-02-05 05:36:00,24.0,22.0,29.65,SW,219,5.0,9.0,92,0.00,,---,0.00,0.00,VWS V14.01,2013-02-05 11:36:00,
2013-02-05 05:41:00,24.1,22.1,29.65,SW,223,5.0,6.0,92,0.00,,---,0.00,0.00,VWS V14.01,2013-02-05 11:41:00,
2013-02-05 05:46:00,24.3,22.3,29.65,SW,222,6.0,7.0,92,0.00,,---,0.00,0.00,VWS V14.01,2013-02-05 11:46:00,
2013-02-05 05:51:00,24.3,22.1,29.65,WSW,244,6.0,9.0,91,0.00,,---,0.00,0.00,VWS V14.01,2013-02-05 11:51:00,
2013-02-05 05:56:00,24.4,22.2,29.65,West,263,6.0,7.0,91,0.00,,---,0.00,0.00,VWS V14.01,2013-02-05 11:56:00,
2013-02-05 06:01:00,24.4,22.2,29.67,WSW,242,9.0,9.0,91,0.00,,---,0.00,0.00,VWS V14.01,2013-02-05 12:01:00,
2013-02-05 06:06:00,24.5,22.2,29.67,WSW,250,2.0,6.0,91,0.00,,---,0.00,0.00,VWS V14.01,2013-02-05 12:06:00,
2013-02-05 06:11:00,24.6,22.4,29.67,WSW,245,2.0,6.0,91,0.00,,---,0.00,0.00,VWS V14.01,2013-02-05 12:11:00,
2013-02-05 06:16:00,24.7,22.5,29.67,WSW,250,3.0,6.0,91,0.00,,---,0.00,0.00,VWS V14.01,2013-02-05 12:16:00,
2013-02-05 06:21:00,24.9,22.6,29.67,WSW,246,6.0,9.0,91,0.00,,---,0.00,0.00,VWS V14.01,2013-02-05 12:21:00,
2013-02-05 06:26:00,24.9,22.6,29.67,WSW,252,5.0,7.0,91,0.00,,---,0.00,0.00,VWS V14.01,2013-02-05 12:26:00,
2013-02-05 06:31:00,24.9,22.6,29.67,West,271,5.0,11.0,91,0.00,,---,0.00,0.00,VWS V14.01,2013-02-05 12:31:00,
2013-02-05 06:37:00,25.0,22.8,29.67,WSW,253,2.0,5.0,91,0.00,,---,0.00,0.00,VWS V14.01,2013-02-05 12:37:00,
2013-02-05 06:42:00,25.0,22.8,29.67,WSW,250,5.0,5.0,91,0.00,,---,0.00,0.00,VWS V14.01,2013-02-05 12:42:00,
2013-02-05 06:47:00,25.1,22.9,29.68,WSW,248,3.0,5.0,91,0.00,,---,0.00,0.00,VWS V14.01,2013-02-05 12:47:00,
2013-02-05 06:52:00,25.1,22.9,29.68,WSW,254,2.0,6.0,91,0.00,,---,0.00,0.00,VWS V14.01,2013-02-05 12:52:00,
2013-02-05 06:57:00,25.3,23.0,29.68,WNW,283,6.0,9.0,91,0.00,,---,0.00,0.00,VWS V14.01,2013-02-05 12:57:00,
2013-02-05 07:02:00,25.4,23.1,29.69,WSW,254,5.0,6.0,91,0.00,,---,0.00,0.00,VWS V14.01,2013-02-05 13:02:00,
2013-02-05 07:07:00,25.6,23.3,29.69,West,260,6.0,10.0,91,0.00,,---,0.00,0.00,VWS V14.01,2013-02-05 13:07:00,
2013-02-05 07:12:00,25.8,23.5,29.69,West,260,4.0,9.0,91,0.00,,---,0.00,0.00,VWS V14.01,2013-02-05 13:12:00,
2013-02-05 07:17:00,26.0,23.7,29.69,West,260,4.0,9.0,91,0.00,,---,0.00,0.00,VWS V14.01,2013-02-05 13:17:00,
2013-02-05 07:22:00,26.0,23.7,29.69,West,263,5.0,9.0,91,0.00,,---,0.00,0.00,VWS V14.01,2013-02-05 13:22:00,
2013-02-05 07:27:00,26.1,23.8,29.69,West,262,3.0,7.0,91,0.00,,---,0.00,0.00,VWS V14.01,2013-02-05 13:27:00,
2013-02-05 07:32:00,26.2,23.9,29.70,West,265,3.0,5.0,91,0.00,,---,0.00,0.00,VWS V14.01,2013-02-05 13:32:00,
2013-02-05 07:38:00,26.2,23.7,29.70,West,269,4.0,6.0,90,0.00,,---,0.00,5.00,VWS V14.01,2013-02-05 13:38:00,
2013-02-05 07:43:00,26.3,23.8,29.70,West,261,6.0,10.0,90,0.00,,---,0.00,7.00,VWS V14.01,2013-02-05 13:43:00,
2013-02-05 07:48:00,26.5,24.0,29.71,WNW,283,7.0,8.0,90,0.00,,---,0.00,11.00,VWS V14.01,2013-02-05 13:48:00,
2013-02-05 07:53:00,26.6,24.1,29.71,West,279,7.0,10.0,90,0.00,,---,0.00,9.00,VWS V14.01,2013-02-05 13:53:00,
2013-02-05 07:58:00,26.6,24.1,29.71,West,278,6.0,10.0,90,0.00,,---,0.00,11.00,VWS V14.01,2013-02-05 13:58:00,
2013-02-05 08:03:00,26.7,24.2,29.71,West,279,5.0,8.0,90,0.00,,---,0.00,16.00,VWS V14.01,2013-02-05 14:03:00,
2013-02-05 08:08:00,26.7,23.9,29.71,West,279,6.0,8.0,89,0.00,,---,0.00,32.00,VWS V14.01,2013-02-05 14:08:00,
2013-02-05 08:13:00,26.8,24.3,29.71,West,272,6.0,7.0,90,0.00,,---,0.00,62.00,VWS V14.01,2013-02-05 14:13:00,
2013-02-05 08:18:00,26.9,24.1,29.72,West,272,4.0,11.0,89,0.00,,---,0.00,63.00,VWS V14.01,2013-02-05 14:18:00,
2013-02-05 08:23:00,26.9,24.1,29.72,West,279,5.0,6.0,89,0.00,,---,0.00,46.00,VWS V14.01,2013-02-05 14:23:00,
2013-02-05 08:28:00,27.0,24.2,29.72,WNW,283,9.0,11.0,89,0.00,,---,0.00,39.00,VWS V14.01,2013-02-05 14:28:00,
2013-02-05 08:33:00,27.1,24.3,29.73,WNW,294,4.0,9.0,89,0.00,,---,0.00,44.00,VWS V14.01,2013-02-05 14:33:00,
2013-02-05 08:39:00,27.1,24.0,29.73,WNW,287,3.0,6.0,88,0.00,,---,0.00,49.00,VWS V14.01,2013-02-05 14:39:00,
2013-02-05 08:44:00,27.3,24.2,29.73,NW,321,4.0,10.0,88,0.00,,---,0.00,44.00,VWS V14.01,2013-02-05 14:44:00,
2013-02-05 08:49:00,27.6,24.5,29.74,NW,313,4.0,7.0,88,0.00,,---,0.00,56.00,VWS V14.01,2013-02-05 14:49:00,
2013-02-05 08:54:00,27.8,24.4,29.74,NW,310,2.0,10.0,87,0.00,,---,0.00,51.00,VWS V14.01,2013-02-05 14:54:00,
2013-02-05 08:59:00,27.9,24.3,29.74,WNW,294,7.0,11.0,86,0.00,,---,0.00,63.00,VWS V14.01,2013-02-05 14:59:00,
2013-02-05 09:04:00,28.0,24.1,29.76,NW,309,8.0,11.0,85,0.00,,---,0.00,77.00,VWS V14.01,2013-02-05 15:04:00,
2013-02-05 09:09:00,28.1,24.2,29.76,NW,318,3.0,8.0,85,0.00,,---,0.00,63.00,VWS V14.01,2013-02-05 15:09:00,
2013-02-05 09:14:00,28.1,23.9,29.76,NNW,331,5.0,10.0,84,0.00,,---,0.00,62.00,VWS V14.01,2013-02-05 15:14:00,
2013-02-05 09:19:00,28.1,23.9,29.76,NNW,344,10.0,12.0,84,0.00,,---,0.00,58.00,VWS V14.01,2013-02-05 15:19:00,
2013-02-05 09:24:00,28.1,23.9,29.76,NW,310,5.0,9.0,84,0.00,,---,0.00,60.00,VWS V14.01,2013-02-05 15:24:00,
2013-02-05 09:29:00,28.1,23.6,29.76,NNW,343,3.0,8.0,83,0.00,,---,0.00,62.00,VWS V14.01,2013-02-05 15:29:00,
2013-02-05 09:34:00,28.1,23.6,29.77,North,355,9.0,9.0,83,0.00,,---,0.00,67.00,VWS V14.01,2013-02-05 15:34:00,
2013-02-05 09:39:00,28.1,23.6,29.77,NW,304,10.0,12.0,83,0.00,,---,0.00,76.00,VWS V14.01,2013-02-05 15:39:00,
2013-02-05 09:44:00,28.1,23.6,29.77,North,351,5.0,13.0,83,0.00,,---,0.00,76.00,VWS V14.01,2013-02-05 15:44:00,
2013-02-05 09:50:00,28.1,23.6,29.78,NNW,346,12.0,12.0,83,0.00,,---,0.00,76.00,VWS V14.01,2013-02-05 15:50:00,
2013-02-05 09:55:00,28.1,23.3,29.78,NNW,346,10.0,11.0,82,0.00,,---,0.00,70.00,VWS V14.01,2013-02-05 15:55:00,
2013-02-05 10:00:00,28.1,23.3,29.78,NNW,340,6.0,14.0,82,0.00,,---,0.00,76.00,VWS V14.01,2013-02-05 16:00:00,
2013-02-05 10:05:00,28.1,23.3,29.79,NNW,336,6.0,12.0,82,0.00,,---,0.00,79.00,VWS V14.01,2013-02-05 16:05:00,
2013-02-05 10:10:00,28.1,23.3,29.79,NNW,337,5.0,16.0,82,0.00,,---,0.00,83.00,VWS V14.01,2013-02-05 16:10:00,
2013-02-05 10:15:00,28.0,23.2,29.79,NNE,21,2.0,14.0,82,0.00,,---,0.00,88.00,VWS V14.01,2013-02-05 16:15:00,
2013-02-05 10:20:00,28.0,23.2,29.81,NNW,334,5.0,12.0,82,0.00,,---,0.00,100.00,VWS V14.01,2013-02-05 16:20:00,
2013-02-05 10:25:00,27.9,23.1,29.81,North,350,6.0,13.0,82,0.00,,---,0.00,97.00,VWS V14.01,2013-02-05 16:25:00,
2013-02-05 10:30:00,27.7,22.9,29.82,North,5,7.0,12.0,82,0.00,,---,0.00,91.00,VWS V14.01,2013-02-05 16:30:00,
2013-02-05 10:35:00,27.6,23.1,29.82,NNW,332,9.0,13.0,83,0.00,,---,0.00,104.00,VWS V14.01,2013-02-05 16:35:00,
2013-02-05 10:40:00,27.5,22.7,29.82,NNW,347,5.0,14.0,82,0.00,,---,0.00,120.00,VWS V14.01,2013-02-05 16:40:00,
2013-02-05 10:45:00,27.4,22.6,29.82,NNW,346,7.0,13.0,82,0.00,,---,0.00,128.00,VWS V14.01,2013-02-05 16:45:00,
2013-02-05 10:50:00,27.5,22.7,29.82,NW,326,6.0,13.0,82,0.00,,---,0.00,135.00,VWS V14.01,2013-02-05 16:50:00,
2013-02-05 10:55:00,27.5,22.7,29.82,North,355,11.0,11.0,82,0.00,,---,0.00,151.00,VWS V14.01,2013-02-05 16:55:00,
2013-02-05 11:01:00,27.3,22.5,29.84,NW,322,11.0,15.0,82,0.00,,---,0.00,148.00,VWS V14.01,2013-02-05 17:01:00,
2013-02-05 11:06:00,27.2,22.4,29.84,NNE,13,3.0,10.0,82,0.00,,---,0.00,148.00,VWS V14.01,2013-02-05 17:06:00,
2013-02-05 11:11:00,27.1,22.4,29.84,NNW,338,4.0,10.0,82,0.00,,---,0.00,171.00,VWS V14.01,2013-02-05 17:11:00,
2013-02-05 11:16:00,27.0,22.2,29.85,North,355,7.0,9.0,82,0.00,,---,0.00,174.00,VWS V14.01,2013-02-05 17:16:00,
2013-02-05 11:21:00,26.8,22.0,29.85,NNW,347,5.0,7.0,82,0.00,,---,0.00,192.00,VWS V14.01,2013-02-05 17:21:00,
2013-02-05 11:26:00,26.7,22.0,29.85,NNW,344,6.0,10.0,82,0.00,,---,0.00,179.00,VWS V14.01,2013-02-05 17:26:00,
2013-02-05 11:31:00,26.5,21.8,29.86,NNE,17,9.0,11.0,82,0.00,,---,0.00,181.00,VWS V14.01,2013-02-05 17:31:00,
2013-02-05 11:36:00,26.6,21.9,29.86,North,360,8.0,9.0,82,0.00,,---,0.00,188.00,VWS V14.01,2013-02-05 17:36:00,
2013-02-05 11:41:00,26.6,21.6,29.86,North,351,10.0,15.0,81,0.00,,---,0.00,204.00,VWS V14.01,2013-02-05 17:41:00,
2013-02-05 11:46:00,26.6,21.6,29.87,NNW,332,6.0,11.0,81,0.00,,---,0.00,188.00,VWS V14.01,2013-02-05 17:46:00,
2013-02-05 11:51:00,26.7,21.4,29.87,NNW,347,5.0,7.0,80,0.00,,---,0.00,229.00,VWS V14.01,2013-02-05 17:51:00,
2013-02-05 11:56:00,26.6,21.0,29.87,NNW,334,10.0,14.0,79,0.00,,---,0.00,229.00,VWS V14.01,2013-02-05 17:56:00,
2013-02-05 12:01:00,26.4,20.5,29.87,NNW,348,6.0,16.0,78,0.00,,---,0.00,278.00,VWS V14.01,2013-02-05 18:01:00,
2013-02-05 12:06:00,26.5,20.3,29.87,North,350,11.0,14.0,77,0.00,,---,0.00,381.00,VWS V14.01,2013-02-05 18:06:00,
2013-02-05 12:11:00,26.6,20.4,29.87,NNW,330,14.0,14.0,77,0.00,,---,0.00,527.00,VWS V14.01,2013-02-05 18:11:00,
2013-02-05 12:16:00,26.9,20.4,29.86,WNW,294,12.0,12.0,76,0.00,,---,0.00,513.00,VWS V14.01,2013-02-05 18:16:00,
2013-02-05 12:21:00,27.0,20.1,29.86,NNW,329,6.0,14.0,75,0.00,,---,0.00,719.00,VWS V14.01,2013-02-05 18:21:00,
2013-02-05 12:27:00,27.1,19.9,29.86,WNW,298,10.0,15.0,74,0.00,,---,0.00,323.00,VWS V14.01,2013-02-05 18:27:00,
2013-02-05 12:32:00,27.1,19.9,29.87,NW,323,11.0,13.0,74,0.00,,---,0.00,626.00,VWS V14.01,2013-02-05 18:32:00,
2013-02-05 12:37:00,27.0,19.5,29.87,North,355,10.0,13.0,73,0.00,,---,0.00,446.00,VWS V14.01,2013-02-05 18:37:00,
2013-02-05 12:42:00,26.9,19.7,29.87,North,350,10.0,11.0,74,0.00,,---,0.00,570.00,VWS V14.01,2013-02-05 18:42:00,
2013-02-05 12:47:00,26.8,19.6,29.88,NW,313,4.0,11.0,74,0.00,,---,0.00,594.00,VWS V14.01,2013-02-05 18:47:00,
2013-02-05 12:52:00,27.2,20.3,29.88,NW,306,4.0,13.0,75,0.00,,---,0.00,422.00,VWS V14.01,2013-02-05 18:52:00,
2013-02-05 12:57:00,27.1,19.9,29.88,NW,326,12.0,12.0,74,0.00,,---,0.00,524.00,VWS V14.01,2013-02-05 18:57:00,
2013-02-05 13:02:00,27.2,20.0,29.88,WNW,298,5.0,9.0,74,0.01,,---,0.01,508.00,VWS V14.01,2013-02-05 19:02:00,
2013-02-05 13:07:00,27.5,20.0,29.88,NNW,338,9.0,10.0,73,0.01,,---,0.01,517.00,VWS V14.01,2013-02-05 19:07:00,
2013-02-05 13:12:00,27.2,19.7,29.88,North,355,6.0,15.0,73,0.01,,---,0.01,599.00,VWS V14.01,2013-02-05 19:12:00,
2013-02-05 13:17:00,27.2,19.7,29.89,NNW,327,7.0,14.0,73,0.01,,---,0.01,635.00,VWS V14.01,2013-02-05 19:17:00,
2013-02-05 13:22:00,27.3,19.8,29.89,NNW,337,9.0,9.0,73,0.01,,---,0.01,568.00,VWS V14.01,2013-02-05 19:22:00,
2013-02-05 13:27:00,27.4,19.6,29.89,NNW,342,6.0,9.0,72,0.01,,---,0.01,577.00,VWS V14.01,2013-02-05 19:27:00,
2013-02-05 13:33:00,27.5,19.7,29.89,NNW,336,5.0,11.0,72,0.01,,---,0.01,250.00,VWS V14.01,2013-02-05 19:33:00,
2013-02-05 13:38:00,27.2,19.4,29.89,NNW,342,6.0,12.0,72,0.01,,---,0.01,325.00,VWS V14.01,2013-02-05 19:38:00,
2013-02-05 13:43:00,27.3,19.8,29.89,North,350,9.0,10.0,73,0.01,,---,0.01,279.00,VWS V14.01,2013-02-05 19:43:00,
2013-02-05 13:48:00,27.2,19.4,29.90,NNW,340,10.0,10.0,72,0.01,,---,0.01,253.00,VWS V14.01,2013-02-05 19:48:00,
2013-02-05 13:53:00,27.0,18.5,29.90,NNW,342,10.0,10.0,70,0.01,,---,0.01,153.00,VWS V14.01,2013-02-05 19:53:00,
2013-02-05 13:58:00,26.9,18.4,29.90,NNW,346,6.0,8.0,70,0.01,,---,0.01,276.00,VWS V14.01,2013-02-05 19:58:00,
2013-02-05 14:03:00,27.0,18.9,29.91,NNW,341,5.0,7.0,71,0.00,,---,0.01,214.00,VWS V14.01,2013-02-05 20:03:00,
2013-02-05 14:08:00,27.3,19.1,29.91,NW,311,6.0,7.0,71,0.00,,---,0.01,244.00,VWS V14.01,2013-02-05 20:08:00,
2013-02-05 14:13:00,27.0,18.2,29.91,NNW,338,8.0,10.0,69,0.00,,---,0.01,132.00,VWS V14.01,2013-02-05 20:13:00,
2013-02-05 14:18:00,26.8,17.3,29.92,North,355,2.0,9.0,67,0.00,,---,0.01,116.00,VWS V14.01,2013-02-05 20:18:00,
2013-02-05 14:23:00,26.6,16.4,29.92,North,355,9.0,11.0,65,0.00,,---,0.01,397.00,VWS V14.01,2013-02-05 20:23:00,
2013-02-05 14:28:00,26.5,16.0,29.92,North,350,9.0,11.0,64,0.00,,---,0.01,338.00,VWS V14.01,2013-02-05 20:28:00,
2013-02-05 14:33:00,26.6,16.1,29.93,NNW,348,2.0,11.0,64,0.00,,---,0.01,352.00,VWS V14.01,2013-02-05 20:33:00,
2013-02-05 14:38:00,26.9,16.4,29.93,North,355,3.0,9.0,64,0.00,,---,0.01,341.00,VWS V14.01,2013-02-05 20:38:00,
2013-02-05 14:44:00,27.0,16.1,29.93,NNW,337,6.0,10.0,63,0.00,,---,0.01,332.00,VWS V14.01,2013-02-05 20:44:00,
2013-02-05 14:49:00,27.1,16.6,29.93,NNW,346,6.0,10.0,64,0.00,,---,0.01,320.00,VWS V14.01,2013-02-05 20:49:00,
2013-02-05 14:54:00,27.3,17.1,29.93,NW,325,8.0,9.0,65,0.00,,---,0.01,308.00,VWS V14.01,2013-02-05 20:54:00,
2013-02-05 14:59:00,27.1,16.6,29.93,NNW,344,5.0,12.0,64,0.00,,---,0.01,301.00,VWS V14.01,2013-02-05 20:59:00,
2013-02-05 15:04:00,27.0,16.5,29.93,NNW,340,4.0,7.0,64,0.00,,---,0.01,267.00,VWS V14.01,2013-02-05 21:04:00,
2013-02-05 15:09:00,26.9,16.4,29.93,North,360,6.0,9.0,64,0.00,,---,0.01,264.00,VWS V14.01,2013-02-05 21:09:00,
2013-02-05 15:14:00,27.0,16.1,29.93,North,349,10.0,10.0,63,0.00,,---,0.01,269.00,VWS V14.01,2013-02-05 21:14:00,
2013-02-05 15:19:00,26.9,15.3,29.94,North,5,6.0,10.0,61,0.00,,---,0.01,258.00,VWS V14.01,2013-02-05 21:19:00,
2013-02-05 15:24:00,26.7,14.7,29.94,North,9,3.0,10.0,60,0.00,,---,0.01,244.00,VWS V14.01,2013-02-05 21:24:00,
2013-02-05 15:29:00,26.7,14.3,29.94,North,349,3.0,10.0,59,0.00,,---,0.01,234.00,VWS V14.01,2013-02-05 21:29:00,
2013-02-05 15:34:00,26.6,14.2,29.95,North,355,6.0,6.0,59,0.00,,---,0.01,221.00,VWS V14.01,2013-02-05 21:34:00,
2013-02-05 15:39:00,26.7,14.3,29.95,NNW,347,7.0,7.0,59,0.00,,---,0.01,213.00,VWS V14.01,2013-02-05 21:39:00,
2013-02-05 15:44:00,26.6,14.2,29.95,North,355,4.0,9.0,59,0.00,,---,0.01,199.00,VWS V14.01,2013-02-05 21:44:00,
2013-02-05 15:49:00,26.5,14.1,29.95,NNW,348,2.0,10.0,59,0.00,,---,0.01,186.00,VWS V14.01,2013-02-05 21:49:00,
2013-02-05 15:55:00,26.3,13.9,29.95,North,360,4.0,5.0,59,0.00,,---,0.01,176.00,VWS V14.01,2013-02-05 21:55:00,
2013-02-05 16:00:00,26.2,13.8,29.95,North,355,3.0,5.0,59,0.00,,---,0.01,160.00,VWS V14.01,2013-02-05 22:00:00,
2013-02-05 16:05:00,26.4,14.0,29.96,North,355,7.0,7.0,59,0.00,,---,0.01,146.00,VWS V14.01,2013-02-05 22:05:00,
2013-02-05 16:10:00,26.4,14.0,29.96,NNW,336,4.0,6.0,59,0.00,,---,0.01,130.00,VWS V14.01,2013-02-05 22:10:00,
2013-02-05 16:15:00,26.4,15.2,29.96,NW,311,7.0,8.0,62,0.00,,---,0.01,118.00,VWS V14.01,2013-02-05 22:15:00,
2013-02-05 16:20:00,26.3,15.4,29.96,NW,315,5.0,6.0,63,0.00,,---,0.01,102.00,VWS V14.01,2013-02-05 22:20:00,
2013-02-05 16:25:00,26.3,15.8,29.96,NW,311,2.0,8.0,64,0.00,,---,0.01,88.00,VWS V14.01,2013-02-05 22:25:00,
2013-02-05 16:30:00,26.0,15.5,29.96,WSW,257,6.0,10.0,64,0.00,,---,0.01,76.00,VWS V14.01,2013-02-05 22:30:00,
2013-02-05 16:35:00,25.9,15.4,29.97,West,259,8.0,11.0,64,0.00,,---,0.01,63.00,VWS V14.01,2013-02-05 22:35:00,
2013-02-05 16:40:00,25.8,15.3,29.97,West,280,5.0,7.0,64,0.00,,---,0.01,53.00,VWS V14.01,2013-02-05 22:40:00,
2013-02-05 16:45:00,25.6,15.1,29.97,WNW,283,9.0,11.0,64,0.00,,---,0.01,42.00,VWS V14.01,2013-02-05 22:45:00,
2013-02-05 16:50:00,25.1,14.6,29.97,West,271,6.0,13.0,64,0.00,,---,0.01,35.00,VWS V14.01,2013-02-05 22:50:00,
2013-02-05 16:55:00,24.8,14.4,29.97,West,278,5.0,11.0,64,0.00,,---,0.01,26.00,VWS V14.01,2013-02-05 22:55:00,
2013-02-05 17:00:00,24.6,14.2,29.97,West,279,7.0,10.0,64,0.00,,---,0.01,18.00,VWS V14.01,2013-02-05 23:00:00,
2013-02-05 17:05:00,24.2,14.1,29.98,WNW,283,10.0,11.0,65,0.00,,---,0.01,14.00,VWS V14.01,2013-02-05 23:05:00,
2013-02-05 17:10:00,23.9,13.9,29.98,West,272,10.0,12.0,65,0.00,,---,0.01,11.00,VWS V14.01,2013-02-05 23:10:00,
2013-02-05 17:15:00,23.7,13.7,29.98,WNW,283,9.0,9.0,65,0.00,,---,0.01,9.00,VWS V14.01,2013-02-05 23:15:00,
2013-02-05 17:20:00,23.5,13.8,29.99,West,271,4.0,7.0,66,0.00,,---,0.01,7.00,VWS V14.01,2013-02-05 23:20:00,
2013-02-05 17:25:00,23.3,13.6,29.99,WNW,285,4.0,7.0,66,0.00,,---,0.01,5.00,VWS V14.01,2013-02-05 23:25:00,
2013-02-05 17:30:00,23.1,13.4,29.99,West,276,5.0,9.0,66,0.00,,---,0.01,0.00,VWS V14.01,2013-02-05 23:30:00,
2013-02-05 17:35:00,22.9,13.3,29.99,West,273,4.0,6.0,66,0.00,,---,0.01,0.00,VWS V14.01,2013-02-05 23:35:00,
2013-02-05 17:40:00,22.7,13.4,29.99,West,271,2.0,5.0,67,0.00,,---,0.01,0.00,VWS V14.01,2013-02-05 23:40:00,
2013-02-05 17:45:00,22.6,13.3,30.00,West,269,5.0,5.0,67,0.00,,---,0.01,0.00,VWS V14.01,2013-02-05 23:45:00,
2013-02-05 17:50:00,22.4,13.1,30.00,West,267,4.0,6.0,67,0.00,,---,0.01,0.00,VWS V14.01,2013-02-05 23:50:00,
2013-02-05 17:55:00,22.2,12.9,30.00,West,268,4.0,5.0,67,0.00,,---,0.01,0.00,VWS V14.01,2013-02-05 23:55:00,
2013-02-05 18:00:00,22.0,12.7,30.01,West,267,2.0,5.0,67,0.00,,---,0.01,0.00,VWS V14.01,2013-02-06 00:00:00,
2013-02-05 18:05:00,21.9,13.0,30.01,West,267,5.0,5.0,68,0.00,,---,0.01,0.00,VWS V14.01,2013-02-06 00:05:00,
2013-02-05 18:11:00,21.8,12.9,30.01,West,269,3.0,5.0,68,0.00,,---,0.01,0.00,VWS V14.01,2013-02-06 00:11:00,
2013-02-05 18:16:00,21.7,12.4,30.01,West,272,5.0,6.0,67,0.00,,---,0.01,0.00,VWS V14.01,2013-02-06 00:16:00,
2013-02-05 18:21:00,21.6,12.7,30.01,West,272,4.0,7.0,68,0.00,,---,0.01,0.00,VWS V14.01,2013-02-06 00:21:00,
2013-02-05 18:26:00,21.6,12.4,30.01,West,272,2.0,4.0,67,0.00,,---,0.01,0.00,VWS V14.01,2013-02-06 00:26:00,
2013-02-05 18:31:00,21.4,12.2,30.02,West,273,4.0,5.0,67,0.00,,---,0.01,0.00,VWS V14.01,2013-02-06 00:31:00,
2013-02-05 18:36:00,21.3,12.1,30.02,West,273,3.0,5.0,67,0.00,,---,0.01,0.00,VWS V14.01,2013-02-06 00:36:00,
2013-02-05 18:41:00,21.2,12.0,30.02,West,273,3.0,5.0,67,0.00,,---,0.01,0.00,VWS V14.01,2013-02-06 00:41:00,
2013-02-05 18:46:00,21.0,11.8,30.03,West,273,2.0,5.0,67,0.00,,---,0.01,0.00,VWS V14.01,2013-02-06 00:46:00,
2013-02-05 18:51:00,20.8,11.9,30.03,West,273,2.0,3.0,68,0.00,,---,0.01,0.00,VWS V14.01,2013-02-06 00:51:00,
2013-02-05 18:56:00,20.6,11.7,30.03,West,272,4.0,4.0,68,0.00,,---,0.01,0.00,VWS V14.01,2013-02-06 00:56:00,
2013-02-05 19:01:00,20.3,11.4,30.04,West,273,3.0,4.0,68,0.00,,---,0.01,0.00,VWS V14.01,2013-02-06 01:01:00,
2013-02-05 19:06:00,20.2,11.4,30.04,West,273,3.0,3.0,68,0.00,,---,0.01,0.00,VWS V14.01,2013-02-06 01:06:00,
2013-02-05 19:11:00,19.9,11.1,30.04,West,273,2.0,2.0,68,0.00,,---,0.01,0.00,VWS V14.01,2013-02-06 01:11:00,
2013-02-05 19:16:00,19.7,11.2,30.04,West,273,1.0,4.0,69,0.00,,---,0.01,0.00,VWS V14.01,2013-02-06 01:16:00,
2013-02-05 19:21:00,19.4,10.9,30.04,West,273,1.0,3.0,69,0.00,,---,0.01,0.00,VWS V14.01,2013-02-06 01:21:00,
2013-02-05 19:26:00,19.1,10.6,30.04,West,273,0.0,0.0,69,0.00,,---,0.01,0.00,VWS V14.01,2013-02-06 01:26:00,
2013-02-05 19:31:00,18.9,10.8,30.04,West,273,0.0,2.0,70,0.00,,---,0.01,0.00,VWS V14.01,2013-02-06 01:31:00,
2013-02-05 19:36:00,18.6,10.8,30.04,West,273,1.0,2.0,71,0.00,,---,0.01,0.00,VWS V14.01,2013-02-06 01:36:00,
2013-02-05 19:41:00,18.5,10.7,30.04,West,273,0.0,0.0,71,0.00,,---,0.01,0.00,VWS V14.01,2013-02-06 01:41:00,
2013-02-05 19:46:00,18.3,10.5,30.05,West,273,0.0,0.0,71,0.00,,---,0.01,0.00,VWS V14.01,2013-02-06 01:46:00,
2013-02-05 19:51:00,18.1,10.6,30.05,West,273,0.0,0.0,72,0.00,,---,0.01,0.00,VWS V14.01,2013-02-06 01:51:00,
2013-02-05 19:56:00,17.8,10.3,30.05,West,273,0.0,0.0,72,0.00,,---,0.01,0.00,VWS V14.01,2013-02-06 01:56:00,
2013-02-05 20:01:00,17.4,9.9,30.05,West,272,0.0,0.0,72,0.00,,---,0.01,0.00,VWS V14.01,2013-02-06 02:01:00,
2013-02-05 20:07:00,17.2,10.1,30.05,West,272,0.0,0.0,73,0.00,,---,0.01,0.00,VWS V14.01,2013-02-06 02:07:00,
2013-02-05 20:12:00,17.0,10.2,30.05,West,273,0.0,0.0,74,0.00,,---,0.01,0.00,VWS V14.01,2013-02-06 02:12:00,
2013-02-05 20:17:00,16.8,10.0,30.05,West,273,0.0,0.0,74,0.00,,---,0.01,0.00,VWS V14.01,2013-02-06 02:17:00,
2013-02-05 20:22:00,16.6,9.8,30.05,West,272,0.0,0.0,74,0.00,,---,0.01,0.00,VWS V14.01,2013-02-06 02:22:00,
2013-02-05 20:27:00,16.4,9.9,30.05,West,272,0.0,0.0,75,0.00,,---,0.01,0.00,VWS V14.01,2013-02-06 02:27:00,
2013-02-05 20:32:00,16.2,9.7,30.04,West,273,0.0,0.0,75,0.00,,---,0.01,0.00,VWS V14.01,2013-02-06 02:32:00,
2013-02-05 20:37:00,16.3,10.1,30.04,West,272,0.0,0.0,76,0.00,,---,0.01,0.00,VWS V14.01,2013-02-06 02:37:00,
2013-02-05 20:42:00,16.6,10.4,30.04,West,273,0.0,0.0,76,0.00,,---,0.01,0.00,VWS V14.01,2013-02-06 02:42:00,
2013-02-05 20:47:00,16.4,10.2,30.04,West,273,0.0,0.0,76,0.00,,---,0.01,0.00,VWS V14.01,2013-02-06 02:47:00,
2013-02-05 20:52:00,15.0,8.5,30.04,West,273,1.0,2.0,75,0.00,,---,0.01,0.00,VWS V14.01,2013-02-06 02:52:00,
2013-02-05 20:57:00,14.0,7.8,30.04,West,273,0.0,2.0,76,0.00,,---,0.01,0.00,VWS V14.01,2013-02-06 02:57:00,
2013-02-05 21:02:00,13.7,8.1,30.06,West,273,0.0,0.0,78,0.00,,---,0.01,0.00,VWS V14.01,2013-02-06 03:02:00,
2013-02-05 21:07:00,14.1,8.8,30.06,West,273,2.0,3.0,79,0.00,,---,0.01,0.00,VWS V14.01,2013-02-06 03:07:00,
2013-02-05 21:12:00,14.9,9.9,30.06,West,273,1.0,3.0,80,0.00,,---,0.01,0.00,VWS V14.01,2013-02-06 03:12:00,
2013-02-05 21:18:00,15.2,9.9,30.07,West,272,0.0,1.0,79,0.00,,---,0.01,0.00,VWS V14.01,2013-02-06 03:18:00,
2013-02-05 21:23:00,15.2,9.9,30.07,West,273,2.0,2.0,79,0.00,,---,0.01,0.00,VWS V14.01,2013-02-06 03:23:00,
2013-02-05 21:28:00,15.1,9.5,30.07,West,273,1.0,3.0,78,0.00,,---,0.01,0.00,VWS V14.01,2013-02-06 03:28:00,
2013-02-05 21:33:00,14.7,9.1,30.07,West,273,1.0,2.0,78,0.00,,---,0.01,0.00,VWS V14.01,2013-02-06 03:33:00,
2013-02-05 21:38:00,14.6,9.0,30.07,West,272,2.0,3.0,78,0.00,,---,0.01,0.00,VWS V14.01,2013-02-06 03:38:00,
2013-02-05 21:43:00,14.6,9.3,30.07,West,273,1.0,2.0,79,0.00,,---,0.01,0.00,VWS V14.01,2013-02-06 03:43:00,
2013-02-05 21:48:00,14.5,9.2,30.08,West,273,2.0,3.0,79,0.00,,---,0.01,0.00,VWS V14.01,2013-02-06 03:48:00,
2013-02-05 21:53:00,14.4,9.1,30.08,West,273,3.0,4.0,79,0.00,,---,0.01,0.00,VWS V14.01,2013-02-06 03:53:00,
2013-02-05 21:58:00,14.4,9.1,30.08,West,273,3.0,4.0,79,0.00,,---,0.01,0.00,VWS V14.01,2013-02-06 03:58:00,
2013-02-05 22:03:00,14.4,9.1,30.08,West,273,3.0,5.0,79,0.00,,---,0.01,0.00,VWS V14.01,2013-02-06 04:03:00,
2013-02-05 22:08:00,14.5,9.5,30.08,West,273,2.0,3.0,80,0.00,,---,0.01,0.00,VWS V14.01,2013-02-06 04:08:00,
2013-02-05 22:13:00,14.4,9.4,30.08,West,272,0.0,2.0,80,0.00,,---,0.01,0.00,VWS V14.01,2013-02-06 04:13:00,
2013-02-05 22:18:00,14.3,9.3,30.07,West,272,1.0,3.0,80,0.00,,---,0.01,0.00,VWS V14.01,2013-02-06 04:18:00,
2013-02-05 22:23:00,14.2,9.2,30.07,West,273,0.0,0.0,80,0.00,,---,0.01,0.00,VWS V14.01,2013-02-06 04:23:00,
2013-02-05 22:28:00,14.0,9.0,30.07,West,273,0.0,0.0,80,0.00,,---,0.01,0.00,VWS V14.01,2013-02-06 04:28:00,
2013-02-05 22:33:00,13.9,8.9,30.06,West,272,0.0,0.0,80,0.00,,---,0.01,0.00,VWS V14.01,2013-02-06 04:33:00,
2013-02-05 22:38:00,13.4,8.4,30.06,West,273,0.0,0.0,80,0.00,,---,0.01,0.00,VWS V14.01,2013-02-06 04:38:00,
2013-02-05 22:43:00,12.7,8.0,30.06,West,273,2.0,2.0,81,0.00,,---,0.01,0.00,VWS V14.01,2013-02-06 04:43:00,
2013-02-05 22:49:00,12.9,8.4,30.07,West,272,3.0,4.0,82,0.00,,---,0.01,0.00,VWS V14.01,2013-02-06 04:49:00,
2013-02-05 22:54:00,13.0,8.8,30.07,West,272,2.0,2.0,83,0.00,,---,0.01,0.00,VWS V14.01,2013-02-06 04:54:00,
2013-02-05 22:59:00,12.9,8.7,30.07,West,272,2.0,2.0,83,0.00,,---,0.01,0.00,VWS V14.01,2013-02-06 04:59:00,
2013-02-05 23:00:00,12.9,8.7,30.07,West,273,2.0,2.0,83,0.00,,---,0.01,0.00,VWS V14.01,2013-02-06 05:00:00,
2013-02-05 23:05:00,12.7,8.5,30.08,West,273,0.0,0.0,83,0.00,,---,0.01,0.00,VWS V14.01,2013-02-06 05:05:00,
2013-02-05 23:10:00,12.6,8.4,30.08,West,273,0.0,0.0,83,0.00,,---,0.01,0.00,VWS V14.01,2013-02-06 05:10:00,
2013-02-05 23:16:00,12.5,8.6,30.08,West,272,0.0,0.0,84,0.00,,---,0.01,0.00,VWS V14.01,2013-02-06 05:16:00,
2013-02-05 23:21:00,12.2,8.3,30.08,West,273,0.0,0.0,84,0.00,,---,0.01,0.00,VWS V14.01,2013-02-06 05:21:00,
2013-02-05 23:26:00,12.1,8.2,30.08,West,273,0.0,0.0,84,0.00,,---,0.01,0.00,VWS V14.01,2013-02-06 05:26:00,
2013-02-05 23:31:00,11.8,7.9,30.08,West,273,0.0,0.0,84,0.00,,---,0.01,0.00,VWS V14.01,2013-02-06 05:31:00,
2013-02-05 23:36:00,11.1,7.2,30.08,West,273,0.0,0.0,84,0.00,,---,0.01,0.00,VWS V14.01,2013-02-06 05:36:00,
2013-02-05 23:41:00,10.6,6.7,30.08,West,273,0.0,0.0,84,0.00,,---,0.01,0.00,VWS V14.01,2013-02-06 05:41:00,
2013-02-05 23:46:00,10.4,6.5,30.08,West,272,0.0,0.0,84,0.00,,---,0.01,0.00,VWS V14.01,2013-02-06 05:46:00,
2013-02-05 23:51:00,10.2,6.6,30.08,West,273,0.0,0.0,85,0.00,,---,0.01,0.00,VWS V14.01,2013-02-06 05:51:00,
2013-02-05 23:56:00,10.0,6.4,30.08,West,272,0.0,0.0,85,0.00,,---,0.01,0.00,VWS V14.01,2013-02-06 05:56:00,